createdAt,value
2023-04-22T00:01:02.512Z,6.00
2023-04-22T00:03:30.138Z,5.60
2023-04-22T00:05:57.723Z,5.20
2023-04-22T00:08:25.834Z,5.60
2023-04-22T00:10:53.092Z,5.00
2023-04-22T00:13:20.371Z,6.00
2023-04-22T00:15:47.765Z,4.80
2023-04-22T00:18:15.443Z,5.80
2023-04-22T00:20:43.997Z,5.20
2023-04-22T00:23:12.196Z,4.90
2023-04-22T00:25:40.780Z,5.40
2023-04-22T00:28:08.309Z,5.20
2023-04-22T00:30:36.086Z,5.00
2023-04-22T00:33:03.577Z,5.70
2023-04-22T00:35:31.113Z,5.20
2023-04-22T00:37:58.448Z,4.70
2023-04-22T00:40:25.820Z,4.70
2023-04-22T00:42:53.486Z,4.60
2023-04-22T00:45:21.239Z,4.30
2023-04-22T00:47:49.378Z,4.80
2023-04-22T00:50:17.539Z,5.30
2023-04-22T00:52:44.994Z,4.10
2023-04-22T00:55:12.595Z,4.20
2023-04-22T00:57:40.421Z,4.70
2023-04-22T01:00:12.213Z,4.70
2023-04-22T01:02:40.098Z,4.60
2023-04-22T01:05:11.592Z,4.50
2023-04-22T01:07:38.988Z,5.10
2023-04-22T01:10:06.965Z,5.00
2023-04-22T01:12:34.483Z,5.10
2023-04-22T01:15:04.532Z,4.60
2023-04-22T01:17:33.991Z,4.00
2023-04-22T01:20:04.227Z,4.10
2023-04-22T01:22:40.572Z,3.60
2023-04-22T01:25:09.520Z,3.60
2023-04-22T01:27:37.452Z,4.10
2023-04-22T01:30:06.339Z,5.10
2023-04-22T01:32:34.142Z,4.30
2023-04-22T01:35:01.465Z,3.70
2023-04-22T01:37:29.489Z,4.10
2023-04-22T01:40:00.971Z,3.80
2023-04-22T01:42:28.814Z,3.50
2023-04-22T01:44:56.149Z,3.80
2023-04-22T01:47:23.472Z,4.10
2023-04-22T01:49:52.044Z,4.00
2023-04-22T01:52:19.478Z,3.90
2023-04-22T01:54:48.790Z,3.70
2023-04-22T01:57:16.704Z,3.90
2023-04-22T01:59:44.220Z,3.10
2023-04-22T02:02:11.628Z,3.40
2023-04-22T02:04:39.090Z,3.70
2023-04-22T02:07:06.417Z,3.20
2023-04-22T02:09:34.395Z,3.60
2023-04-22T02:12:01.937Z,5.50
2023-04-22T02:14:29.301Z,4.30
2023-04-22T02:16:56.617Z,4.30
2023-04-22T02:19:23.859Z,4.80
2023-04-22T02:21:51.427Z,3.60
2023-04-22T02:24:18.652Z,3.80
2023-04-22T02:26:47.689Z,4.00
2023-04-22T02:29:16.494Z,3.60
2023-04-22T02:31:43.824Z,3.80
2023-04-22T02:34:11.221Z,4.00
2023-04-22T02:36:38.556Z,4.00
2023-04-22T02:39:06.468Z,4.80
2023-04-22T02:41:33.796Z,4.10
2023-04-22T02:44:01.049Z,4.50
2023-04-22T02:46:28.585Z,4.20
2023-04-22T02:48:56.144Z,4.10
2023-04-22T02:51:23.824Z,4.50
2023-04-22T02:53:51.274Z,4.40
2023-04-22T02:56:19.252Z,4.10
2023-04-22T02:58:46.730Z,3.80
2023-04-22T03:01:14.028Z,4.10
2023-04-22T03:03:41.681Z,4.10
2023-04-22T03:06:09.092Z,4.40
2023-04-22T03:08:36.439Z,5.20
2023-04-22T03:11:04.713Z,5.00
2023-04-22T03:13:32.067Z,5.70
2023-04-22T03:15:59.588Z,5.20
2023-04-22T03:18:26.922Z,5.00
2023-04-22T03:20:54.164Z,4.30
2023-04-22T03:23:21.426Z,4.10
2023-04-22T03:25:48.735Z,4.90
2023-04-22T03:28:15.995Z,4.20
2023-04-22T03:30:43.505Z,4.60
2023-04-22T03:33:11.761Z,4.70
2023-04-22T03:35:39.061Z,4.90
2023-04-22T03:38:06.607Z,4.00
2023-04-22T03:40:34.001Z,4.90
2023-04-22T03:43:01.370Z,5.40
2023-04-22T03:45:29.333Z,3.50
2023-04-22T03:47:56.724Z,4.20
2023-04-22T03:50:25.799Z,4.90
2023-04-22T03:52:53.137Z,4.50
2023-04-22T03:55:20.741Z,4.70
2023-04-22T03:57:48.340Z,4.90
2023-04-22T04:00:15.834Z,4.50
2023-04-22T04:02:44.368Z,4.00
2023-04-22T04:05:12.204Z,3.60
2023-04-22T04:07:39.909Z,4.30
2023-04-22T04:10:07.984Z,4.40
2023-04-22T04:12:35.306Z,4.20
2023-04-22T04:15:02.830Z,4.70
2023-04-22T04:17:30.807Z,4.20
2023-04-22T04:19:58.133Z,5.80
2023-04-22T04:22:25.803Z,5.00
2023-04-22T04:24:56.157Z,8.20
2023-04-22T04:27:24.301Z,6.20
2023-04-22T04:29:52.876Z,5.90
2023-04-22T04:32:20.290Z,7.40
2023-04-22T04:34:48.003Z,5.70
2023-04-22T04:37:16.786Z,5.90
2023-04-22T04:39:44.813Z,6.20
2023-04-22T04:42:12.525Z,5.60
2023-04-22T04:44:39.737Z,5.90
2023-04-22T04:47:07.243Z,5.30
2023-04-22T04:49:40.264Z,5.30
2023-04-22T04:52:11.996Z,4.80
2023-04-22T04:54:39.326Z,5.20
2023-04-22T04:57:06.815Z,5.40
2023-04-22T04:59:34.748Z,6.60
2023-04-22T05:02:02.367Z,4.80
2023-04-22T05:04:30.151Z,4.10
2023-04-22T05:06:57.649Z,4.00
2023-04-22T05:09:24.865Z,3.90
2023-04-22T05:11:52.128Z,3.30
2023-04-22T05:14:19.415Z,3.60
2023-04-22T05:16:47.239Z,3.90
2023-04-22T05:19:14.903Z,3.80
2023-04-22T05:21:42.222Z,3.60
2023-04-22T05:24:09.546Z,4.10
2023-04-22T05:26:37.082Z,3.50
2023-04-22T05:29:04.389Z,3.60
2023-04-22T05:31:31.798Z,3.70
2023-04-22T05:33:59.450Z,3.20
2023-04-22T05:36:29.820Z,4.10
2023-04-22T05:38:58.595Z,3.70
2023-04-22T05:41:26.382Z,3.80
2023-04-22T05:43:53.726Z,3.60
2023-04-22T05:46:21.210Z,4.40
2023-04-22T05:48:49.029Z,3.90
2023-04-22T05:51:16.406Z,4.10
2023-04-22T05:53:43.762Z,3.80
2023-04-22T05:56:11.150Z,3.90
2023-04-22T05:58:38.465Z,4.10
2023-04-22T06:01:05.815Z,4.20
2023-04-22T06:03:33.383Z,3.90
2023-04-22T06:06:01.222Z,4.10
2023-04-22T06:08:30.747Z,3.60
2023-04-22T06:10:58.460Z,4.50
2023-04-22T06:13:25.929Z,3.80
2023-04-22T06:15:53.447Z,4.30
2023-04-22T06:18:20.945Z,3.80
2023-04-22T06:20:48.230Z,3.90
2023-04-22T06:23:15.594Z,4.50
2023-04-22T06:25:43.784Z,3.80
2023-04-22T06:28:11.281Z,4.30
2023-04-22T06:30:38.447Z,5.80
2023-04-22T06:33:05.928Z,4.40
2023-04-22T06:35:33.222Z,4.90
2023-04-22T06:38:00.652Z,4.80
2023-04-22T06:40:27.924Z,4.40
2023-04-22T06:42:55.214Z,4.40
2023-04-22T06:45:22.611Z,4.50
2023-04-22T06:47:50.031Z,4.40
2023-04-22T06:50:17.301Z,5.20
2023-04-22T06:52:44.641Z,7.30
2023-04-22T06:55:12.055Z,5.40
2023-04-22T06:57:39.658Z,5.40
2023-04-22T07:00:10.638Z,5.30
2023-04-22T07:02:38.053Z,13.50
2023-04-22T07:05:05.704Z,5.80
2023-04-22T07:07:33.055Z,6.50
2023-04-22T07:10:00.518Z,4.50
2023-04-22T07:12:27.795Z,5.40
2023-04-22T07:14:55.085Z,4.70
2023-04-22T07:17:22.869Z,4.80
2023-04-22T07:19:50.247Z,5.70
2023-04-22T07:22:17.551Z,4.90
2023-04-22T07:24:44.779Z,5.20
2023-04-22T07:27:12.176Z,5.20
2023-04-22T07:29:39.860Z,6.00
2023-04-22T07:32:07.602Z,5.20
2023-04-22T07:34:35.367Z,4.30
2023-04-22T07:37:02.783Z,6.20
2023-04-22T07:39:30.021Z,5.30
2023-04-22T07:41:57.372Z,5.00
2023-04-22T07:44:24.801Z,5.20
2023-04-22T07:46:52.397Z,5.70
2023-04-22T07:49:20.341Z,5.00
2023-04-22T07:51:47.727Z,4.80
2023-04-22T07:54:14.998Z,4.70
2023-04-22T07:56:42.294Z,5.70
2023-04-22T07:59:09.480Z,5.80
2023-04-22T08:01:36.838Z,6.60
2023-04-22T08:04:04.363Z,10.30
2023-04-22T08:06:32.169Z,11.70
2023-04-22T08:08:59.731Z,11.70
2023-04-22T08:11:27.169Z,10.30
2023-04-22T08:13:54.505Z,6.90
2023-04-22T08:16:22.082Z,8.60
2023-04-22T08:18:49.308Z,6.20
2023-04-22T08:21:16.881Z,7.00
2023-04-22T08:23:44.158Z,7.30
2023-04-22T08:26:15.257Z,6.90
2023-04-22T08:28:42.802Z,6.90
2023-04-22T08:31:12.091Z,7.10
2023-04-22T08:33:42.440Z,6.90
2023-04-22T08:36:11.298Z,7.00
2023-04-22T08:38:38.668Z,6.10
2023-04-22T08:41:07.352Z,8.20
2023-04-22T08:43:35.292Z,7.20
2023-04-22T08:46:02.718Z,6.80
2023-04-22T08:48:29.936Z,7.40
2023-04-22T08:50:58.341Z,7.40
2023-04-22T08:53:25.700Z,7.10
2023-04-22T08:55:56.551Z,8.10
2023-04-22T08:58:24.557Z,7.30
2023-04-22T09:00:52.468Z,7.60
2023-04-22T09:03:20.687Z,7.30
2023-04-22T09:05:52.322Z,7.00
2023-04-22T09:08:19.864Z,7.00
2023-04-22T09:10:47.265Z,7.60
2023-04-22T09:13:15.396Z,8.30
2023-04-22T09:15:42.916Z,7.40
2023-04-22T09:18:10.557Z,6.50
2023-04-22T09:20:42.448Z,6.90
2023-04-22T09:23:12.278Z,6.40
2023-04-22T09:25:40.871Z,6.80
2023-04-22T09:28:12.795Z,6.50
2023-04-22T09:30:40.107Z,6.20
2023-04-22T09:33:08.022Z,5.80
2023-04-22T09:35:40.734Z,6.70
2023-04-22T09:38:10.075Z,6.20
2023-04-22T09:40:41.232Z,6.50
2023-04-22T09:43:09.526Z,5.80
2023-04-22T09:45:43.279Z,7.00
2023-04-22T09:48:17.551Z,5.70
2023-04-22T09:50:49.960Z,6.20
2023-04-22T09:53:19.728Z,6.50
2023-04-22T09:55:49.910Z,5.70
2023-04-22T09:58:19.359Z,5.50
2023-04-22T10:00:54.343Z,6.40
2023-04-22T10:03:22.062Z,5.60
2023-04-22T10:05:49.558Z,6.30
2023-04-22T10:08:17.717Z,5.50
2023-04-22T10:10:45.732Z,5.70
2023-04-22T10:13:13.189Z,5.60
2023-04-22T10:15:49.659Z,6.00
2023-04-22T10:18:24.525Z,6.30
2023-04-22T10:20:53.554Z,6.20
2023-04-22T10:23:24.082Z,7.40
2023-04-22T10:25:54.936Z,6.70
2023-04-22T10:28:24.467Z,6.10
2023-04-22T10:30:52.135Z,6.40
2023-04-22T10:33:27.692Z,6.30
2023-04-22T10:36:32.616Z,7.60
2023-04-22T10:38:59.891Z,6.40
2023-04-22T10:41:31.565Z,5.90
2023-04-22T10:44:06.082Z,6.50
2023-04-22T10:46:34.796Z,6.20
2023-04-22T10:49:10.150Z,5.70
2023-04-22T10:51:44.802Z,6.10
2023-04-22T10:54:31.024Z,6.10
2023-04-22T10:57:09.860Z,6.00
2023-04-22T10:59:50.101Z,6.30
2023-04-22T11:02:18.770Z,7.00
2023-04-22T11:04:46.836Z,6.20
2023-04-22T11:07:26.957Z,6.30
2023-04-22T11:10:05.406Z,7.70
2023-04-22T11:12:38.909Z,6.10
2023-04-22T11:15:13.412Z,7.00
2023-04-22T11:17:43.839Z,6.70
2023-04-22T11:20:13.084Z,6.20
2023-04-22T11:22:43.296Z,5.60
2023-04-22T11:25:11.215Z,5.60
2023-04-22T11:27:39.563Z,6.00
2023-04-22T11:30:12.466Z,5.60
2023-04-22T11:32:45.469Z,6.40
2023-04-22T11:35:15.615Z,5.50
2023-04-22T11:37:45.484Z,5.70
2023-04-22T11:40:29.045Z,5.80
2023-04-22T11:42:59.904Z,5.60
2023-04-22T11:45:28.615Z,5.10
2023-04-22T11:47:56.735Z,5.10
2023-04-22T11:50:29.444Z,5.20
2023-04-22T11:53:02.660Z,4.90
2023-04-22T11:55:35.654Z,4.60
2023-04-22T11:58:08.623Z,4.90
2023-04-22T12:00:37.386Z,4.90
2023-04-22T12:03:08.403Z,4.80
2023-04-22T12:05:46.029Z,4.60
2023-04-22T12:08:16.499Z,5.20
2023-04-22T12:10:52.406Z,4.80
2023-04-22T12:13:21.151Z,5.60
2023-04-22T12:15:49.525Z,4.90
2023-04-22T12:18:16.786Z,5.10
2023-04-22T12:20:44.237Z,4.50
2023-04-22T12:23:16.035Z,5.00
2023-04-22T12:25:43.921Z,4.70
2023-04-22T12:28:11.836Z,4.90
2023-04-22T12:30:39.171Z,4.90
2023-04-22T12:33:06.879Z,5.00
2023-04-22T12:35:34.496Z,5.70
2023-04-22T12:38:01.994Z,5.20
2023-04-22T12:40:29.423Z,4.80
2023-04-22T12:42:56.864Z,4.80
2023-04-22T12:45:25.151Z,4.60
2023-04-22T12:47:55.603Z,4.40
2023-04-22T12:50:23.019Z,4.80
2023-04-22T12:52:50.421Z,5.10
2023-04-22T12:55:18.260Z,4.70
2023-04-22T12:57:46.892Z,4.90
2023-04-22T13:00:14.615Z,4.50
2023-04-22T13:02:46.588Z,4.70
2023-04-22T13:05:14.589Z,4.30
2023-04-22T13:07:42.263Z,4.50
2023-04-22T13:10:13.522Z,4.70
2023-04-22T13:12:42.404Z,4.40
2023-04-22T13:15:11.053Z,4.00
2023-04-22T13:17:38.796Z,3.60
2023-04-22T13:20:09.703Z,4.10
2023-04-22T13:22:37.292Z,3.90
2023-04-22T13:25:05.326Z,4.00
2023-04-22T13:27:32.842Z,4.10
2023-04-22T13:30:00.162Z,4.10
2023-04-22T13:32:27.584Z,3.60
2023-04-22T13:34:55.185Z,11.40
2023-04-22T13:37:23.344Z,4.10
2023-04-22T13:39:50.902Z,9.90
2023-04-22T13:42:18.384Z,3.60
2023-04-22T13:44:45.947Z,3.60
2023-04-22T13:47:13.217Z,3.30
2023-04-22T13:49:40.907Z,3.50
2023-04-22T13:52:09.328Z,3.00
2023-04-22T13:54:36.783Z,3.20
2023-04-22T13:57:04.482Z,3.00
2023-04-22T13:59:32.202Z,3.60
2023-04-22T14:01:59.470Z,4.40
2023-04-22T14:04:27.275Z,3.30
2023-04-22T14:06:54.677Z,3.30
2023-04-22T14:09:21.972Z,3.50
2023-04-22T14:11:49.291Z,3.60
2023-04-22T14:14:16.590Z,4.00
2023-04-22T14:16:43.860Z,4.10
2023-04-22T14:19:11.764Z,3.50
2023-04-22T14:21:39.060Z,3.30
2023-04-22T14:24:06.565Z,3.00
2023-04-22T14:26:34.065Z,3.10
2023-04-22T14:29:01.665Z,4.30
2023-04-22T14:31:29.281Z,3.70
2023-04-22T14:33:56.878Z,3.40
2023-04-22T14:36:24.567Z,3.70
2023-04-22T14:38:51.922Z,4.60
2023-04-22T14:41:19.234Z,3.00
2023-04-22T14:43:47.430Z,3.70
2023-04-22T14:46:14.771Z,3.20
2023-04-22T14:48:42.155Z,3.90
2023-04-22T14:51:12.763Z,4.10
2023-04-22T14:53:41.795Z,2.70
2023-04-22T14:56:09.169Z,3.20
2023-04-22T14:58:36.521Z,3.20
2023-04-22T15:01:04.660Z,3.60
2023-04-22T15:03:34.412Z,3.50
2023-04-22T15:06:01.878Z,3.10
2023-04-22T15:08:29.220Z,2.90
2023-04-22T15:10:56.777Z,3.20
2023-04-22T15:13:24.267Z,3.80
2023-04-22T15:15:52.199Z,3.80
2023-04-22T15:18:19.542Z,2.80
2023-04-22T15:20:46.842Z,2.50
2023-04-22T15:23:14.316Z,2.40
2023-04-22T15:25:41.765Z,2.80
2023-04-22T15:28:10.611Z,2.90
2023-04-22T15:30:37.836Z,2.80
2023-04-22T15:33:05.588Z,3.10
2023-04-22T15:35:32.870Z,2.90
2023-04-22T15:38:01.662Z,3.70
2023-04-22T15:40:29.019Z,4.20
2023-04-22T15:42:56.270Z,3.90
2023-04-22T15:45:23.525Z,4.20
2023-04-22T15:47:52.473Z,5.50
2023-04-22T15:50:20.286Z,6.20
2023-04-22T15:52:47.488Z,3.60
2023-04-22T15:55:14.885Z,3.80
2023-04-22T15:57:42.159Z,6.40
2023-04-22T16:00:13.029Z,4.90
2023-04-22T16:02:42.385Z,4.30
2023-04-22T16:05:10.780Z,4.50
2023-04-22T16:07:38.079Z,4.50
2023-04-22T16:10:05.917Z,5.20
2023-04-22T16:12:34.353Z,14.50
2023-04-22T16:15:02.289Z,6.20
2023-04-22T16:17:30.405Z,4.20
2023-04-22T16:19:57.708Z,3.10
2023-04-22T16:22:25.243Z,4.30
2023-04-22T16:24:52.544Z,3.60
2023-04-22T16:27:19.883Z,6.40
2023-04-22T16:29:47.122Z,4.30
2023-04-22T16:32:14.904Z,4.10
2023-04-22T16:34:42.198Z,3.40
2023-04-22T16:37:09.478Z,3.80
2023-04-22T16:39:36.850Z,3.50
2023-04-22T16:42:04.458Z,4.10
2023-04-22T16:44:31.743Z,6.20
2023-04-22T16:46:59.135Z,7.30
2023-04-22T16:49:27.002Z,13.30
2023-04-22T16:51:54.703Z,13.80
2023-04-22T16:54:22.001Z,11.50
2023-04-22T16:56:49.417Z,9.40
2023-04-22T16:59:16.567Z,7.80
2023-04-22T17:01:43.977Z,6.70
2023-04-22T17:04:11.620Z,7.00
2023-04-22T17:06:39.948Z,9.30
2023-04-22T17:09:07.723Z,7.60
2023-04-22T17:11:35.009Z,4.40
2023-04-22T17:14:02.283Z,4.00
2023-04-22T17:16:29.642Z,6.30
2023-04-22T17:18:57.073Z,7.90
2023-04-22T17:21:25.572Z,5.00
2023-04-22T17:23:53.112Z,5.70
2023-04-22T17:26:21.037Z,8.40
2023-04-22T17:28:48.633Z,8.30
2023-04-22T17:31:16.060Z,7.10
2023-04-22T17:33:43.519Z,5.60
2023-04-22T17:36:11.468Z,5.60
2023-04-22T17:38:41.077Z,5.60
2023-04-22T17:41:08.550Z,6.70
2023-04-22T17:43:35.980Z,5.80
2023-04-22T17:46:03.402Z,6.70
2023-04-22T17:48:30.748Z,6.10
2023-04-22T17:51:01.655Z,8.20
2023-04-22T17:53:28.939Z,7.00
2023-04-22T17:55:56.153Z,4.70
2023-04-22T17:58:23.455Z,8.10
2023-04-22T18:00:51.133Z,6.10
2023-04-22T18:03:20.334Z,7.00
2023-04-22T18:05:47.844Z,6.70
2023-04-22T18:08:15.059Z,5.70
2023-04-22T18:10:42.355Z,7.30
2023-04-22T18:13:09.690Z,6.00
2023-04-22T18:15:36.871Z,6.50
2023-04-22T18:18:04.272Z,8.50
2023-04-22T18:20:31.802Z,10.10
2023-04-22T18:22:59.010Z,10.00
2023-04-22T18:25:26.477Z,8.70
2023-04-22T18:27:56.735Z,9.90
2023-04-22T18:30:24.738Z,10.10
2023-04-22T18:32:52.437Z,9.30
2023-04-22T18:35:20.372Z,9.00
2023-04-22T18:37:47.981Z,8.40
2023-04-22T18:40:17.409Z,10.20
2023-04-22T18:42:45.252Z,8.70
2023-04-22T18:45:12.784Z,9.00
2023-04-22T18:47:40.483Z,9.30
2023-04-22T18:50:08.251Z,8.30
2023-04-22T18:52:36.276Z,8.20
2023-04-22T18:55:04.390Z,7.40
2023-04-22T18:57:32.047Z,7.00
2023-04-22T18:59:59.735Z,6.30
2023-04-22T19:02:27.249Z,7.00
2023-04-22T19:04:54.921Z,8.00
2023-04-22T19:07:22.310Z,10.90
2023-04-22T19:09:49.534Z,7.90
2023-04-22T19:12:19.106Z,6.00
2023-04-22T19:14:48.072Z,6.80
2023-04-22T19:17:15.480Z,5.80
2023-04-22T19:19:44.576Z,5.40
2023-04-22T19:22:12.620Z,4.70
2023-04-22T19:24:40.219Z,4.90
2023-04-22T19:27:12.549Z,4.80
2023-04-22T19:29:43.484Z,4.70
2023-04-22T19:32:11.755Z,5.20
2023-04-22T19:34:39.225Z,5.70
2023-04-22T19:37:06.900Z,5.60
2023-04-22T19:39:34.202Z,5.20
2023-04-22T19:42:03.726Z,5.50
2023-04-22T19:44:31.448Z,5.70
2023-04-22T19:46:58.735Z,5.70
2023-04-22T19:49:26.639Z,5.80
2023-04-22T19:51:53.997Z,5.70
2023-04-22T19:54:22.058Z,6.20
2023-04-22T19:56:49.524Z,6.00
2023-04-22T19:59:18.084Z,6.90
2023-04-22T20:01:45.823Z,6.40
2023-04-22T20:04:13.514Z,6.60
2023-04-22T20:06:43.035Z,8.00
2023-04-22T20:09:10.629Z,6.50
2023-04-22T20:11:38.146Z,5.80
2023-04-22T20:14:07.711Z,6.50
2023-04-22T20:16:35.826Z,7.30
2023-04-22T20:19:03.771Z,8.40
2023-04-22T20:21:34.648Z,7.70
2023-04-22T20:24:04.584Z,7.70
2023-04-22T20:26:34.711Z,7.80
2023-04-22T20:29:03.088Z,7.20
2023-04-22T20:31:30.730Z,7.70
2023-04-22T20:33:58.331Z,8.90
2023-04-22T20:36:26.654Z,8.70
2023-04-22T20:38:55.238Z,7.60
2023-04-22T20:41:24.816Z,7.90
2023-04-22T20:43:52.681Z,6.30
2023-04-22T20:46:22.838Z,6.00
2023-04-22T20:48:50.516Z,7.30
2023-04-22T20:51:18.143Z,6.30
2023-04-22T20:53:45.605Z,6.00
2023-04-22T20:56:13.602Z,6.10
2023-04-22T20:58:41.121Z,5.80
2023-04-22T21:01:09.493Z,5.80
2023-04-22T21:03:40.560Z,5.50
2023-04-22T21:06:09.287Z,6.10
2023-04-22T21:08:37.533Z,5.30
2023-04-22T21:11:05.142Z,4.80
2023-04-22T21:13:32.648Z,4.70
2023-04-22T21:16:03.480Z,4.60
2023-04-22T21:18:33.092Z,4.30
2023-04-22T21:21:04.188Z,5.20
2023-04-22T21:23:31.846Z,5.10
2023-04-22T21:26:01.917Z,5.60
2023-04-22T21:28:29.671Z,5.70
2023-04-22T21:30:57.415Z,5.30
2023-04-22T21:33:25.563Z,5.30
2023-04-22T21:35:53.247Z,4.50
2023-04-22T21:38:20.705Z,4.60
2023-04-22T21:40:48.139Z,5.00
2023-04-22T21:43:15.780Z,5.10
2023-04-22T21:45:43.051Z,5.10
2023-04-22T21:48:10.340Z,4.90
2023-04-22T21:50:37.526Z,5.10
2023-04-22T21:53:04.757Z,5.50
2023-04-22T21:55:31.951Z,5.00
2023-04-22T21:57:58.937Z,4.30
2023-04-22T22:00:26.768Z,4.70
2023-04-22T22:02:53.979Z,5.10
2023-04-22T22:05:21.373Z,4.80
2023-04-22T22:07:49.082Z,4.80
2023-04-22T22:10:19.411Z,5.00
2023-04-22T22:12:47.741Z,5.20
2023-04-22T22:15:19.167Z,5.00
2023-04-22T22:17:46.453Z,5.20
2023-04-22T22:20:18.249Z,6.30
2023-04-22T22:22:45.328Z,5.40
2023-04-22T22:25:15.676Z,5.00
2023-04-22T22:27:47.367Z,4.80
2023-04-22T22:30:21.284Z,4.60
2023-04-22T22:32:48.994Z,4.30
2023-04-22T22:35:16.523Z,5.00
2023-04-22T22:37:44.708Z,4.50
2023-04-22T22:40:12.639Z,4.70
2023-04-22T22:42:39.940Z,5.10
2023-04-22T22:45:07.776Z,4.90
2023-04-22T22:47:36.158Z,4.90
2023-04-22T22:50:03.745Z,4.50
2023-04-22T22:52:32.253Z,4.50
2023-04-22T22:54:59.967Z,5.10
2023-04-22T22:57:27.368Z,4.80
2023-04-22T22:59:54.648Z,4.60
2023-04-22T23:02:21.963Z,5.20
2023-04-22T23:04:49.430Z,5.00
2023-04-22T23:07:17.870Z,4.80
2023-04-22T23:09:45.220Z,4.90
2023-04-22T23:12:12.601Z,4.80
2023-04-22T23:14:40.964Z,4.50
2023-04-22T23:17:08.700Z,4.90
2023-04-22T23:19:36.892Z,5.10
2023-04-22T23:22:06.984Z,5.10
2023-04-22T23:24:34.500Z,5.30
2023-04-22T23:27:02.349Z,5.50
2023-04-22T23:29:30.219Z,4.90
2023-04-22T23:31:59.036Z,5.50
2023-04-22T23:34:26.790Z,5.20
2023-04-22T23:36:56.884Z,5.10
2023-04-22T23:39:24.456Z,5.10
2023-04-22T23:41:51.746Z,5.70
2023-04-22T23:44:18.967Z,5.80
2023-04-22T23:46:47.610Z,5.30
2023-04-22T23:49:14.971Z,5.40
2023-04-22T23:51:43.050Z,5.20
2023-04-22T23:54:10.307Z,5.40
2023-04-22T23:56:37.934Z,5.10
2023-04-22T23:59:05.721Z,5.90
